Time;durP1;ratioP1;P1;durP2;ratioP2;P2;SDS_P1;SDS_P2;PMS_P1;PMS_P2;Temp;Humidity;BMP_temperature;BMP_pressure;BME280_temperature;BME280_humidity;BME280_pressure;Samples;Min_cycle;Max_cycle;Signal;HPM_P1;HPM_P2
2023/06/23 00:02:18;;;;;;;27.48;24.63;;;;;;;;;;5014682;28;20414;-77
2023/06/23 00:04:44;;;;;;;26.20;23.40;;;;;;;;;;5014802;28;20103;-77
2023/06/23 00:07:10;;;;;;;23.70;21.20;;;;;;;;;;5029448;28;20045;-77
2023/06/23 00:09:40;;;;;;;25.60;22.67;;;;;;;;;;5034373;28;20049;-77
2023/06/23 00:12:07;;;;;;;27.05;23.95;;;;;;;;;;5035058;28;20041;-77
2023/06/23 00:14:34;;;;;;;27.20;24.30;;;;;;;;;;5038865;28;20046;-77
2023/06/23 00:17:01;;;;;;;25.30;22.50;;;;;;;;;;5038956;28;20042;-77
2023/06/23 00:19:27;;;;;;;23.33;21.02;;;;;;;;;;5040365;28;20073;-77
2023/06/23 00:21:53;;;;;;;25.17;22.05;;;;;;;;;;5034981;28;20049;-77
2023/06/23 00:24:19;;;;;;;26.40;23.48;;;;;;;;;;5034206;28;20084;-77
2023/06/23 00:26:45;;;;;;;27.38;24.63;;;;;;;;;;5034414;28;20103;-77
2023/06/23 00:29:13;;;;;;;26.88;23.98;;;;;;;;;;5034198;28;20045;-77
2023/06/23 00:31:39;;;;;;;26.75;23.55;;;;;;;;;;5034091;28;20425;-77
2023/06/23 00:34:05;;;;;;;28.85;23.20;;;;;;;;;;5033819;28;20049;-77
2023/06/23 00:36:31;;;;;;;27.70;23.33;;;;;;;;;;5034172;28;20047;-77
2023/06/23 00:38:57;;;;;;;26.25;23.55;;;;;;;;;;5034245;28;20049;-77
2023/06/23 00:41:23;;;;;;;27.77;24.05;;;;;;;;;;5033976;28;20472;-77
2023/06/23 00:43:50;;;;;;;24.92;22.40;;;;;;;;;;5034435;28;20495;-77
2023/06/23 00:46:20;;;;;;;26.13;21.65;;;;;;;;;;5033764;28;20041;-77
2023/06/23 00:48:47;;;;;;;25.67;22.70;;;;;;;;;;5034035;28;20084;-77
2023/06/23 00:51:16;;;;;;;24.30;21.40;;;;;;;;;;5033781;28;20124;-77
2023/06/23 00:53:47;;;;;;;24.30;21.42;;;;;;;;;;5034351;28;20056;-77
2023/06/23 00:56:14;;;;;;;25.40;21.75;;;;;;;;;;5033739;28;20127;-77
2023/06/23 00:58:41;;;;;;;28.02;20.63;;;;;;;;;;5033937;28;20045;-77
2023/06/23 01:01:08;;;;;;;26.63;21.40;;;;;;;;;;5033811;28;20057;-77
2023/06/23 01:03:35;;;;;;;25.95;20.83;;;;;;;;;;5033584;28;20042;-78
2023/06/23 01:06:08;;;;;;;25.02;21.13;;;;;;;;;;5033415;28;20073;-77
2023/06/23 01:08:38;;;;;;;24.15;21.52;;;;;;;;;;5033805;28;20041;-77
2023/06/23 01:11:14;;;;;;;28.20;21.08;;;;;;;;;;5034063;28;20034;-78
2023/06/23 01:13:49;;;;;;;24.05;20.77;;;;;;;;;;5032249;28;20376;-78
2023/06/23 01:16:18;;;;;;;23.95;20.67;;;;;;;;;;5032248;28;20049;-78
2023/06/23 01:18:47;;;;;;;20.85;18.60;;;;;;;;;;5033353;28;20410;-77
2023/06/23 01:21:15;;;;;;;21.65;19.33;;;;;;;;;;5032223;28;20130;-77
2023/06/23 01:24:11;;;;;;;21.42;17.70;;;;;;;;;;5033067;28;20057;-77
2023/06/23 01:26:38;;;;;;;19.02;17.05;;;;;;;;;;5028666;28;20415;-78
2023/06/23 01:29:08;;;;;;;20.98;16.75;;;;;;;;;;5032198;28;20475;-77
2023/06/23 01:31:43;;;;;;;19.27;15.10;;;;;;;;;;5032720;28;20392;-77
2023/06/23 01:34:10;;;;;;;18.23;15.00;;;;;;;;;;5033291;28;20037;-78
2023/06/23 01:36:41;;;;;;;18.17;14.75;;;;;;;;;;5031786;28;20518;-78
2023/06/23 01:39:11;;;;;;;16.50;14.18;;;;;;;;;;5032031;28;20103;-77
2023/06/23 01:41:52;;;;;;;16.15;14.07;;;;;;;;;;5033030;28;20041;-77
2023/06/23 01:44:19;;;;;;;20.95;15.82;;;;;;;;;;5032875;28;20060;-77
2023/06/23 01:46:49;;;;;;;19.20;15.70;;;;;;;;;;5032896;28;20147;-77
2023/06/23 01:49:18;;;;;;;22.23;18.30;;;;;;;;;;5032052;28;20038;-77
2023/06/23 01:51:46;;;;;;;23.45;19.02;;;;;;;;;;5032828;28;20518;-77
2023/06/23 01:54:13;;;;;;;26.05;20.13;;;;;;;;;;5032791;28;20396;-77
2023/06/23 01:56:41;;;;;;;25.10;22.02;;;;;;;;;;5015436;28;20492;-77
2023/06/23 01:59:09;;;;;;;24.25;20.67;;;;;;;;;;5013097;28;20052;-77
2023/06/23 02:01:36;;;;;;;25.52;22.02;;;;;;;;;;5013608;28;20050;-77
2023/06/23 02:04:03;;;;;;;25.05;21.80;;;;;;;;;;5013128;28;20116;-77
2023/06/23 02:06:30;;;;;;;26.67;22.90;;;;;;;;;;5013140;28;20034;-77
2023/06/23 02:08:57;;;;;;;26.15;21.92;;;;;;;;;;5013284;28;20054;-78
2023/06/23 02:11:24;;;;;;;25.67;22.67;;;;;;;;;;5012551;28;20042;-77
2023/06/23 02:13:52;;;;;;;26.25;22.98;;;;;;;;;;5013300;28;20124;-77
2023/06/23 02:16:18;;;;;;;25.40;22.45;;;;;;;;;;5012850;28;20093;-78
2023/06/23 02:18:45;;;;;;;26.73;22.52;;;;;;;;;;5011949;28;20129;-78
2023/06/23 02:21:11;;;;;;;28.75;24.08;;;;;;;;;;5011742;28;20492;-77
2023/06/23 02:23:39;;;;;;;28.42;24.48;;;;;;;;;;5012909;28;20120;-77
2023/06/23 02:26:05;;;;;;;29.95;24.40;;;;;;;;;;5012875;28;20500;-77
2023/06/23 02:28:32;;;;;;;27.98;23.55;;;;;;;;;;5011720;28;20054;-78
2023/06/23 02:30:59;;;;;;;26.55;22.75;;;;;;;;;;5012650;28;20362;-77
2023/06/23 02:33:25;;;;;;;27.48;23.17;;;;;;;;;;5013197;28;20162;-77
2023/06/23 02:35:54;;;;;;;29.52;24.55;;;;;;;;;;5012870;28;20046;-77
2023/06/23 02:38:21;;;;;;;31.90;23.50;;;;;;;;;;5013120;28;20479;-77
2023/06/23 02:40:48;;;;;;;28.55;22.23;;;;;;;;;;5016306;28;20190;-77
2023/06/23 02:43:25;;;;;;;31.13;23.15;;;;;;;;;;5016863;28;20042;-77
2023/06/23 02:45:54;;;;;;;26.83;21.08;;;;;;;;;;5016794;28;20069;-77
2023/06/23 02:48:27;;;;;;;30.25;20.13;;;;;;;;;;5016597;28;20054;-78
2023/06/23 02:50:55;;;;;;;24.23;18.80;;;;;;;;;;5016205;28;20041;-77
2023/06/23 02:53:23;;;;;;;26.98;18.80;;;;;;;;;;5016344;28;20042;-77
2023/06/23 02:55:50;;;;;;;23.17;17.40;;;;;;;;;;5016082;28;20042;-77
2023/06/23 02:58:18;;;;;;;24.10;16.95;;;;;;;;;;5015956;28;20046;-77
2023/06/23 03:00:44;;;;;;;21.88;16.27;;;;;;;;;;5016110;28;20492;-77
2023/06/23 03:03:15;;;;;;;19.92;15.43;;;;;;;;;;5016659;28;20038;-77
2023/06/23 03:05:41;;;;;;;20.85;14.82;;;;;;;;;;5018673;28;20057;-77
2023/06/23 03:08:07;;;;;;;18.55;15.07;;;;;;;;;;5035626;28;20522;-77
2023/06/23 03:10:34;;;;;;;18.50;14.15;;;;;;;;;;5036049;28;20041;-77
2023/06/23 03:13:00;;;;;;;18.45;13.57;;;;;;;;;;5035815;28;20049;-77
2023/06/23 03:15:27;;;;;;;19.15;14.65;;;;;;;;;;5035633;28;20052;-77
2023/06/23 03:17:58;;;;;;;16.58;13.30;;;;;;;;;;5035736;28;20046;-77
2023/06/23 03:20:24;;;;;;;18.42;13.02;;;;;;;;;;5035437;28;20077;-77
2023/06/23 03:23:12;;;;;;;16.50;14.13;;;;;;;;;;5034367;28;20112;-77
2023/06/23 03:25:40;;;;;;;17.20;13.77;;;;;;;;;;5035319;28;20061;-76
2023/06/23 03:28:08;;;;;;;18.08;14.07;;;;;;;;;;5034577;28;20551;-77
2023/06/23 03:30:39;;;;;;;18.55;14.43;;;;;;;;;;5035357;28;20550;-77
2023/06/23 03:33:09;;;;;;;15.68;13.55;;;;;;;;;;5035350;28;20052;-77
2023/06/23 03:35:41;;;;;;;22.38;14.45;;;;;;;;;;5035699;28;20037;-77
2023/06/23 03:38:09;;;;;;;19.48;13.95;;;;;;;;;;5035575;28;20052;-77
2023/06/23 03:40:39;;;;;;;18.73;13.85;;;;;;;;;;5035322;28;20498;-77
2023/06/23 03:43:25;;;;;;;18.13;12.85;;;;;;;;;;5035087;28;20456;-77
2023/06/23 03:45:53;;;;;;;15.15;11.73;;;;;;;;;;5030989;28;20102;-77
2023/06/23 03:48:20;;;;;;;17.70;12.20;;;;;;;;;;5035649;28;20538;-77
2023/06/23 03:50:47;;;;;;;16.92;11.98;;;;;;;;;;5034403;28;20041;-77
2023/06/23 03:53:14;;;;;;;15.88;12.50;;;;;;;;;;5035032;28;20053;-77
2023/06/23 03:55:41;;;;;;;17.05;12.25;;;;;;;;;;5034756;28;20383;-77
2023/06/23 03:58:08;;;;;;;16.25;12.10;;;;;;;;;;5035182;28;20065;-77
2023/06/23 04:00:36;;;;;;;18.52;12.63;;;;;;;;;;5035127;28;20045;-77
2023/06/23 04:03:05;;;;;;;17.38;12.25;;;;;;;;;;5039043;28;20042;-77
2023/06/23 04:05:32;;;;;;;21.30;13.30;;;;;;;;;;5038560;28;20085;-77
2023/06/23 04:08:02;;;;;;;18.38;12.80;;;;;;;;;;5019865;28;20053;-77
2023/06/23 04:10:29;;;;;;;15.82;12.55;;;;;;;;;;5015525;28;20053;-77
2023/06/23 04:12:56;;;;;;;21.13;14.93;;;;;;;;;;5013987;28;20108;-77
2023/06/23 04:15:24;;;;;;;19.00;14.38;;;;;;;;;;5014936;28;20050;-77
2023/06/23 04:17:51;;;;;;;22.20;14.65;;;;;;;;;;5014814;28;20477;-77
2023/06/23 04:20:19;;;;;;;21.92;15.18;;;;;;;;;;5014879;28;20077;-77
2023/06/23 04:22:46;;;;;;;20.65;14.77;;;;;;;;;;5014760;28;20041;-77
2023/06/23 04:25:13;;;;;;;17.35;14.32;;;;;;;;;;5014258;28;20056;-77
2023/06/23 04:27:39;;;;;;;19.98;14.75;;;;;;;;;;5014419;28;20050;-77
2023/06/23 04:30:06;;;;;;;22.38;15.27;;;;;;;;;;5014201;28;20041;-77
2023/06/23 04:32:33;;;;;;;20.30;16.08;;;;;;;;;;5013862;28;20046;-77
2023/06/23 04:34:59;;;;;;;21.00;15.57;;;;;;;;;;5014340;28;20057;-77
2023/06/23 04:37:37;;;;;;;19.85;15.73;;;;;;;;;;5014306;28;20050;-77
2023/06/23 04:40:12;;;;;;;20.23;15.20;;;;;;;;;;5014237;28;20048;-77
2023/06/23 04:42:44;;;;;;;19.88;15.13;;;;;;;;;;5014483;28;20165;-77
2023/06/23 04:45:14;;;;;;;23.17;15.30;;;;;;;;;;5014133;28;20349;-77
2023/06/23 04:47:42;;;;;;;20.33;14.43;;;;;;;;;;5014086;28;20046;-77
2023/06/23 04:50:10;;;;;;;18.15;14.10;;;;;;;;;;5014112;28;20072;-78
2023/06/23 04:52:37;;;;;;;17.15;12.38;;;;;;;;;;5014601;28;20042;-78
2023/06/23 04:55:04;;;;;;;18.40;13.30;;;;;;;;;;5013993;28;20056;-78
2023/06/23 04:57:32;;;;;;;15.73;13.85;;;;;;;;;;5013953;28;20069;-77
2023/06/23 05:00:00;;;;;;;16.20;13.02;;;;;;;;;;5013931;28;20046;-77
2023/06/23 05:02:27;;;;;;;18.17;13.57;;;;;;;;;;5013168;28;20080;-77
2023/06/23 05:04:54;;;;;;;16.10;13.45;;;;;;;;;;5014094;28;20049;-77
2023/06/23 05:07:20;;;;;;;16.40;12.98;;;;;;;;;;5013905;28;20046;-77
2023/06/23 05:09:48;;;;;;;17.92;13.10;;;;;;;;;;5013895;28;20050;-77
2023/06/23 05:12:15;;;;;;;13.93;11.55;;;;;;;;;;5013783;28;20077;-77
2023/06/23 05:14:42;;;;;;;14.68;11.63;;;;;;;;;;5013858;28;20096;-77
2023/06/23 05:17:10;;;;;;;14.40;10.52;;;;;;;;;;5013153;28;20443;-77
2023/06/23 05:19:37;;;;;;;13.57;10.70;;;;;;;;;;5013755;28;20049;-77
2023/06/23 05:22:08;;;;;;;12.70;9.98;;;;;;;;;;5013394;28;20164;-77
2023/06/23 05:24:36;;;;;;;11.43;10.20;;;;;;;;;;5013417;28;20054;-77
2023/06/23 05:27:02;;;;;;;12.60;10.07;;;;;;;;;;5011984;28;20041;-78
2023/06/23 05:29:29;;;;;;;13.88;10.68;;;;;;;;;;5013432;28;20046;-77
2023/06/23 05:31:55;;;;;;;16.58;10.30;;;;;;;;;;5013552;28;20049;-77
2023/06/23 05:34:23;;;;;;;17.08;10.85;;;;;;;;;;5013298;28;20434;-77
2023/06/23 05:36:50;;;;;;;13.90;10.32;;;;;;;;;;5013512;28;20128;-78
2023/06/23 05:39:18;;;;;;;15.38;11.43;;;;;;;;;;5013471;28;20473;-77
2023/06/23 05:41:44;;;;;;;13.60;11.30;;;;;;;;;;5013287;28;20042;-77
2023/06/23 05:44:10;;;;;;;14.23;11.55;;;;;;;;;;5013523;28;20052;-77
2023/06/23 05:46:38;;;;;;;17.02;12.10;;;;;;;;;;5013463;28;20042;-77
2023/06/23 05:49:10;;;;;;;14.70;11.68;;;;;;;;;;5013601;28;20103;-77
2023/06/23 05:51:36;;;;;;;14.55;11.52;;;;;;;;;;5013332;28;20507;-77
2023/06/23 05:54:07;;;;;;;14.73;11.52;;;;;;;;;;5012925;28;20488;-77
2023/06/23 05:56:53;;;;;;;14.88;11.38;;;;;;;;;;5013138;28;20050;-78
2023/06/23 05:59:28;;;;;;;14.25;11.02;;;;;;;;;;5013398;28;20076;-78
2023/06/23 06:01:58;;;;;;;13.57;11.00;;;;;;;;;;5013238;28;20386;-77
2023/06/23 06:04:32;;;;;;;14.75;12.13;;;;;;;;;;5013307;28;20116;-77
2023/06/23 06:06:58;;;;;;;15.82;10.90;;;;;;;;;;5026234;28;20042;-77
2023/06/23 06:09:27;;;;;;;12.55;10.05;;;;;;;;;;5033229;28;20067;-77
2023/06/23 06:11:54;;;;;;;12.13;10.13;;;;;;;;;;5032674;28;20512;-77
2023/06/23 06:14:21;;;;;;;12.45;9.80;;;;;;;;;;5036880;28;20082;-77
2023/06/23 06:16:47;;;;;;;11.05;9.27;;;;;;;;;;5037226;28;20064;-77
2023/06/23 06:19:14;;;;;;;12.00;8.77;;;;;;;;;;5019253;28;20476;-77
2023/06/23 06:21:41;;;;;;;13.35;8.65;;;;;;;;;;5036529;28;20357;-77
2023/06/23 06:24:10;;;;;;;12.20;9.07;;;;;;;;;;5036594;28;20092;-77
2023/06/23 06:26:36;;;;;;;10.40;8.52;;;;;;;;;;5036650;28;20042;-77
2023/06/23 06:29:05;;;;;;;10.35;8.43;;;;;;;;;;5037096;28;20065;-77
2023/06/23 06:31:33;;;;;;;18.17;9.55;;;;;;;;;;5036488;28;20550;-77
2023/06/23 06:34:00;;;;;;;12.02;9.55;;;;;;;;;;5036395;28;20475;-77
2023/06/23 06:36:27;;;;;;;13.60;10.25;;;;;;;;;;5036418;28;20136;-77
2023/06/23 06:38:54;;;;;;;13.95;10.88;;;;;;;;;;5036415;28;20168;-77
2023/06/23 06:41:21;;;;;;;15.70;11.25;;;;;;;;;;5036553;28;20046;-77
2023/06/23 06:43:47;;;;;;;17.17;11.30;;;;;;;;;;5036591;28;20059;-77
2023/06/23 06:46:14;;;;;;;16.08;11.43;;;;;;;;;;5036649;28;20042;-77
2023/06/23 06:48:40;;;;;;;16.33;11.88;;;;;;;;;;5036147;28;20120;-77
2023/06/23 06:51:07;;;;;;;14.75;10.35;;;;;;;;;;5036277;28;20046;-77
2023/06/23 06:53:34;;;;;;;14.75;11.13;;;;;;;;;;5036048;28;20103;-77
2023/06/23 06:56:00;;;;;;;16.15;11.68;;;;;;;;;;5024166;28;20682;-77
2023/06/23 06:58:26;;;;;;;15.95;11.77;;;;;;;;;;5016216;28;20484;-77
2023/06/23 07:00:57;;;;;;;16.10;11.63;;;;;;;;;;5016038;28;20053;-77
2023/06/23 07:03:23;;;;;;;11.25;9.57;;;;;;;;;;5015918;28;20420;-77
2023/06/23 07:05:49;;;;;;;12.25;9.13;;;;;;;;;;5015881;28;20129;-77
2023/06/23 07:08:15;;;;;;;10.85;8.48;;;;;;;;;;5016442;28;20176;-77
2023/06/23 07:10:41;;;;;;;11.60;9.55;;;;;;;;;;5015779;28;20391;-77
2023/06/23 07:13:07;;;;;;;11.95;9.50;;;;;;;;;;5016489;28;20046;-77
2023/06/23 07:15:33;;;;;;;12.32;10.02;;;;;;;;;;5015949;28;20041;-77
2023/06/23 07:17:59;;;;;;;10.02;9.02;;;;;;;;;;5015850;28;20053;-77
2023/06/23 07:20:25;;;;;;;11.73;7.90;;;;;;;;;;5015808;28;20396;-77
2023/06/23 07:22:51;;;;;;;8.45;7.15;;;;;;;;;;5015194;28;20034;-77
2023/06/23 07:25:18;;;;;;;10.68;7.60;;;;;;;;;;5014969;28;20053;-77
2023/06/23 07:27:47;;;;;;;10.32;7.68;;;;;;;;;;5015471;28;20123;-77
2023/06/23 07:30:14;;;;;;;11.20;7.40;;;;;;;;;;5015773;28;20050;-77
2023/06/23 07:32:40;;;;;;;10.95;7.95;;;;;;;;;;5015487;28;20045;-77
2023/06/23 07:35:06;;;;;;;11.43;7.40;;;;;;;;;;5015314;28;20042;-77
2023/06/23 07:37:32;;;;;;;8.32;6.15;;;;;;;;;;5015850;28;20045;-77
2023/06/23 07:39:59;;;;;;;7.78;6.13;;;;;;;;;;5014689;28;20060;-77
2023/06/23 07:42:26;;;;;;;10.32;6.10;;;;;;;;;;5014124;28;20046;-77
2023/06/23 07:44:52;;;;;;;8.00;6.20;;;;;;;;;;5015661;28;20121;-77
2023/06/23 07:47:18;;;;;;;7.47;5.78;;;;;;;;;;5017503;28;20501;-77
2023/06/23 07:49:44;;;;;;;9.75;6.38;;;;;;;;;;5019849;28;20057;-77
2023/06/23 07:52:10;;;;;;;7.78;5.90;;;;;;;;;;5021313;28;20045;-77
2023/06/23 07:54:37;;;;;;;9.27;5.88;;;;;;;;;;5017862;28;20048;-77
2023/06/23 07:57:07;;;;;;;7.68;5.68;;;;;;;;;;5035029;28;20045;-77
2023/06/23 07:59:34;;;;;;;7.55;6.30;;;;;;;;;;5035272;28;20049;-77
2023/06/23 08:02:00;;;;;;;8.45;5.70;;;;;;;;;;5034954;28;20045;-77
2023/06/23 08:04:26;;;;;;;8.25;6.00;;;;;;;;;;5034752;28;20068;-77
2023/06/23 08:06:52;;;;;;;8.02;6.07;;;;;;;;;;5034626;28;20041;-77
2023/06/23 08:09:18;;;;;;;7.97;6.28;;;;;;;;;;5035197;28;20049;-77
2023/06/23 08:11:44;;;;;;;10.52;7.00;;;;;;;;;;5034770;28;20049;-77
2023/06/23 08:14:11;;;;;;;9.50;6.95;;;;;;;;;;5034557;28;20076;-77
2023/06/23 08:16:37;;;;;;;7.88;6.72;;;;;;;;;;5034695;28;20041;-77
2023/06/23 08:19:03;;;;;;;8.13;6.47;;;;;;;;;;5034310;28;20380;-77
2023/06/23 08:21:30;;;;;;;8.02;6.45;;;;;;;;;;5034528;28;20053;-77
2023/06/23 08:23:57;;;;;;;9.05;6.90;;;;;;;;;;5034157;28;20462;-77
2023/06/23 08:26:23;;;;;;;9.07;6.90;;;;;;;;;;5034210;28;20120;-77
2023/06/23 08:28:49;;;;;;;9.48;7.40;;;;;;;;;;5034310;28;20045;-77
2023/06/23 08:31:15;;;;;;;9.85;6.90;;;;;;;;;;5033934;28;20046;-77
2023/06/23 08:33:41;;;;;;;10.77;7.10;;;;;;;;;;5034513;28;20167;-77
2023/06/23 08:36:07;;;;;;;8.50;7.13;;;;;;;;;;5034130;28;20399;-77
2023/06/23 08:38:33;;;;;;;9.02;7.03;;;;;;;;;;5034299;28;20048;-77
2023/06/23 08:40:59;;;;;;;8.60;7.15;;;;;;;;;;5034472;28;20047;-77
2023/06/23 08:43:26;;;;;;;11.80;7.65;;;;;;;;;;5033933;28;20119;-77
2023/06/23 08:45:59;;;;;;;9.98;7.18;;;;;;;;;;5033918;28;20049;-77
2023/06/23 08:48:27;;;;;;;8.40;6.93;;;;;;;;;;5034533;28;20116;-77
2023/06/23 08:51:03;;;;;;;9.15;6.57;;;;;;;;;;5033476;28;20554;-78
2023/06/23 08:53:29;;;;;;;9.70;6.80;;;;;;;;;;5033810;28;20391;-78
2023/06/23 08:55:55;;;;;;;13.25;6.75;;;;;;;;;;5033702;28;20041;-78
2023/06/23 08:58:23;;;;;;;8.77;6.75;;;;;;;;;;5034277;28;20045;-79
2023/06/23 09:00:52;;;;;;;9.55;6.70;;;;;;;;;;5033837;28;20168;-78
2023/06/23 09:03:22;;;;;;;9.70;7.25;;;;;;;;;;5033887;28;20076;-78
2023/06/23 09:05:48;;;;;;;9.10;7.00;;;;;;;;;;5033228;28;20461;-78
2023/06/23 09:08:15;;;;;;;8.40;7.00;;;;;;;;;;5033606;28;20037;-78
2023/06/23 09:10:41;;;;;;;8.50;6.78;;;;;;;;;;5033608;28;20060;-78
2023/06/23 09:13:14;;;;;;;8.55;7.18;;;;;;;;;;5033913;28;20042;-78
2023/06/23 09:15:42;;;;;;;9.07;6.15;;;;;;;;;;5033553;28;20401;-78
2023/06/23 09:18:09;;;;;;;7.93;6.50;;;;;;;;;;5033644;28;20049;-77
2023/06/23 09:20:36;;;;;;;7.90;6.38;;;;;;;;;;5033229;28;20064;-77
2023/06/23 09:23:02;;;;;;;8.52;6.47;;;;;;;;;;5033043;28;20137;-77
2023/06/23 09:25:40;;;;;;;9.27;7.28;;;;;;;;;;5033083;28;20081;-77
2023/06/23 09:28:06;;;;;;;8.88;6.63;;;;;;;;;;5033494;28;20085;-77
2023/06/23 09:30:36;;;;;;;10.02;6.88;;;;;;;;;;5032758;28;20046;-77
2023/06/23 09:33:05;;;;;;;10.57;6.57;;;;;;;;;;5033118;28;20167;-77
2023/06/23 09:35:31;;;;;;;8.30;6.70;;;;;;;;;;5033008;28;20048;-77
2023/06/23 09:37:57;;;;;;;10.07;6.78;;;;;;;;;;5032747;28;20080;-77
2023/06/23 09:40:27;;;;;;;7.97;6.50;;;;;;;;;;5032761;28;20462;-77
2023/06/23 09:42:57;;;;;;;11.23;7.40;;;;;;;;;;5032703;28;20049;-77
2023/06/23 09:45:24;;;;;;;9.20;7.20;;;;;;;;;;5031707;28;20041;-77
2023/06/23 09:47:50;;;;;;;9.63;7.00;;;;;;;;;;5033033;28;20039;-77
2023/06/23 09:50:17;;;;;;;8.45;6.05;;;;;;;;;;5032508;28;20045;-77
2023/06/23 09:52:43;;;;;;;10.43;7.38;;;;;;;;;;5033089;28;20550;-77
2023/06/23 09:55:09;;;;;;;8.85;6.95;;;;;;;;;;5033084;28;20049;-77
2023/06/23 09:57:35;;;;;;;8.32;6.40;;;;;;;;;;5032630;28;20121;-77
2023/06/23 10:00:03;;;;;;;7.75;6.82;;;;;;;;;;5032712;28;20087;-77
2023/06/23 10:02:30;;;;;;;10.13;6.78;;;;;;;;;;5032774;28;20045;-77
2023/06/23 10:05:00;;;;;;;9.18;7.47;;;;;;;;;;5032411;28;20468;-77
2023/06/23 10:07:27;;;;;;;8.77;6.32;;;;;;;;;;5015962;28;20100;-77
2023/06/23 10:09:54;;;;;;;7.07;5.93;;;;;;;;;;5013308;28;20117;-77
2023/06/23 10:12:29;;;;;;;10.10;7.20;;;;;;;;;;5012571;28;20346;-77
2023/06/23 10:14:56;;;;;;;8.70;6.80;;;;;;;;;;5013090;28;20519;-77
2023/06/23 10:17:22;;;;;;;11.88;7.60;;;;;;;;;;5012766;28;20042;-77
2023/06/23 10:19:49;;;;;;;9.85;7.75;;;;;;;;;;5012562;28;20400;-77
2023/06/23 10:22:18;;;;;;;9.48;7.43;;;;;;;;;;5012626;28;20500;-77
2023/06/23 10:24:45;;;;;;;9.43;7.10;;;;;;;;;;5012548;28;20153;-77
2023/06/23 10:27:14;;;;;;;7.35;6.30;;;;;;;;;;5012613;28;20133;-77
2023/06/23 10:29:44;;;;;;;8.00;6.10;;;;;;;;;;5012423;28;20400;-77
2023/06/23 10:32:11;;;;;;;7.78;5.65;;;;;;;;;;5012510;28;20052;-77
2023/06/23 10:34:41;;;;;;;7.72;6.70;;;;;;;;;;5012822;28;20046;-78
2023/06/23 10:37:09;;;;;;;7.57;6.05;;;;;;;;;;5012743;28;20559;-77
2023/06/23 10:39:35;;;;;;;7.45;6.57;;;;;;;;;;5012841;28;20042;-77
2023/06/23 10:42:02;;;;;;;9.18;6.53;;;;;;;;;;5012940;28;20042;-77
2023/06/23 10:44:28;;;;;;;7.32;6.05;;;;;;;;;;5012656;28;20037;-78
2023/06/23 10:46:54;;;;;;;8.48;6.47;;;;;;;;;;5012460;28;20045;-78
2023/06/23 10:49:22;;;;;;;6.55;5.68;;;;;;;;;;5011546;28;20042;-78
2023/06/23 10:51:48;;;;;;;10.20;6.30;;;;;;;;;;5012824;28;20041;-78
2023/06/23 10:54:25;;;;;;;7.32;6.57;;;;;;;;;;5012741;28;20080;-77
2023/06/23 10:56:55;;;;;;;8.25;6.38;;;;;;;;;;5012615;28;20073;-77
2023/06/23 10:59:21;;;;;;;10.20;7.68;;;;;;;;;;5012205;28;20037;-77
2023/06/23 11:02:07;;;;;;;10.75;7.35;;;;;;;;;;5015021;28;20050;-77
2023/06/23 11:04:49;;;;;;;7.95;6.47;;;;;;;;;;5015712;28;20050;-78
2023/06/23 11:07:15;;;;;;;6.90;5.65;;;;;;;;;;5016099;28;20045;-78
2023/06/23 11:09:52;;;;;;;7.22;5.55;;;;;;;;;;5015748;28;20092;-78
2023/06/23 11:12:31;;;;;;;8.18;5.35;;;;;;;;;;5015772;28;20053;-78
2023/06/23 11:15:02;;;;;;;5.82;4.88;;;;;;;;;;5015612;28;20058;-78
2023/06/23 11:17:28;;;;;;;6.53;4.97;;;;;;;;;;5015787;28;20060;-78
2023/06/23 11:19:55;;;;;;;6.20;5.60;;;;;;;;;;5015778;28;20042;-78
2023/06/23 11:22:21;;;;;;;6.78;5.32;;;;;;;;;;5016115;28;20044;-77
2023/06/23 11:24:54;;;;;;;6.72;4.82;;;;;;;;;;5015738;28;20061;-77
2023/06/23 11:27:20;;;;;;;8.27;5.63;;;;;;;;;;5014177;28;20061;-77
2023/06/23 11:30:05;;;;;;;7.82;5.50;;;;;;;;;;5015699;28;20042;-77
2023/06/23 11:32:31;;;;;;;5.00;4.50;;;;;;;;;;5015447;28;20408;-77
2023/06/23 11:35:00;;;;;;;7.32;4.63;;;;;;;;;;5015418;28;20042;-77
2023/06/23 11:37:31;;;;;;;9.48;5.00;;;;;;;;;;5015299;28;20042;-77
2023/06/23 11:39:57;;;;;;;5.72;4.45;;;;;;;;;;5018708;28;20050;-77
2023/06/23 11:42:23;;;;;;;7.22;4.30;;;;;;;;;;5021021;28;20049;-77
2023/06/23 11:44:49;;;;;;;9.90;4.60;;;;;;;;;;5020481;28;20069;-77
2023/06/23 11:47:16;;;;;;;6.72;4.70;;;;;;;;;;5016940;28;20054;-77
2023/06/23 11:49:43;;;;;;;5.63;4.15;;;;;;;;;;5015294;28;20523;-77
2023/06/23 11:52:09;;;;;;;5.80;4.28;;;;;;;;;;5015481;28;20125;-77
2023/06/23 11:54:35;;;;;;;7.82;4.40;;;;;;;;;;5015195;28;20046;-77
2023/06/23 11:57:03;;;;;;;6.07;4.57;;;;;;;;;;5015352;28;20081;-77
2023/06/23 11:59:35;;;;;;;5.22;4.45;;;;;;;;;;5015326;28;20042;-77
2023/06/23 12:02:02;;;;;;;7.70;4.95;;;;;;;;;;5015138;28;20061;-77
2023/06/23 12:04:28;;;;;;;5.68;4.57;;;;;;;;;;5014764;28;20241;-77
2023/06/23 12:06:54;;;;;;;6.53;4.63;;;;;;;;;;5014628;28;20049;-77
2023/06/23 12:09:20;;;;;;;6.28;4.20;;;;;;;;;;5014941;28;20088;-77
2023/06/23 12:11:47;;;;;;;6.70;4.85;;;;;;;;;;5014544;28;20389;-77
2023/06/23 12:14:14;;;;;;;6.78;4.20;;;;;;;;;;5014770;28;20563;-77
2023/06/23 12:16:40;;;;;;;5.30;3.83;;;;;;;;;;5015004;28;20157;-77
2023/06/23 12:19:06;;;;;;;7.60;4.15;;;;;;;;;;5014689;28;20423;-77
2023/06/23 12:21:35;;;;;;;5.43;3.40;;;;;;;;;;5014571;28;20385;-77
2023/06/23 12:24:01;;;;;;;5.90;4.07;;;;;;;;;;5014376;28;20065;-77
2023/06/23 12:26:27;;;;;;;4.38;3.60;;;;;;;;;;5014618;28;20046;-77
2023/06/23 12:29:08;;;;;;;5.85;3.70;;;;;;;;;;5014514;28;20046;-77
2023/06/23 12:31:34;;;;;;;6.50;3.75;;;;;;;;;;5014301;28;20050;-77
2023/06/23 12:34:01;;;;;;;4.25;3.33;;;;;;;;;;5014568;28;20045;-77
2023/06/23 12:36:27;;;;;;;5.47;3.35;;;;;;;;;;5014413;28;20436;-78
2023/06/23 12:38:55;;;;;;;5.07;3.70;;;;;;;;;;5013070;28;20042;-78
2023/06/23 12:41:26;;;;;;;4.05;3.65;;;;;;;;;;5014305;28;20046;-78
2023/06/23 12:43:56;;;;;;;6.57;3.88;;;;;;;;;;5014302;28;20493;-78
2023/06/23 12:46:26;;;;;;;4.85;3.33;;;;;;;;;;5014066;28;20071;-77
2023/06/23 12:48:54;;;;;;;5.32;3.65;;;;;;;;;;5014178;28;20117;-77
2023/06/23 12:51:31;;;;;;;4.07;3.00;;;;;;;;;;5014142;28;20053;-77
2023/06/23 12:53:57;;;;;;;4.35;3.38;;;;;;;;;;5014252;28;20441;-77
2023/06/23 12:56:23;;;;;;;5.90;3.70;;;;;;;;;;5013612;28;20049;-77
2023/06/23 12:58:49;;;;;;;5.72;3.58;;;;;;;;;;5012469;28;20046;-77
2023/06/23 13:01:17;;;;;;;5.22;3.70;;;;;;;;;;5014447;28;20053;-77
2023/06/23 13:03:43;;;;;;;5.45;3.20;;;;;;;;;;5014125;28;20057;-77
2023/06/23 13:06:09;;;;;;;4.93;3.25;;;;;;;;;;5013643;28;20037;-77
2023/06/23 13:08:35;;;;;;;4.30;3.47;;;;;;;;;;5013227;28;20510;-77
2023/06/23 13:11:01;;;;;;;4.13;3.17;;;;;;;;;;5013533;28;20050;-77
2023/06/23 13:13:27;;;;;;;5.80;3.10;;;;;;;;;;5013597;28;20591;-77
2023/06/23 13:15:53;;;;;;;6.25;3.28;;;;;;;;;;5013485;28;20050;-77
2023/06/23 13:18:19;;;;;;;7.32;3.45;;;;;;;;;;5013601;28;20076;-77
2023/06/23 13:20:45;;;;;;;4.13;3.03;;;;;;;;;;5013371;28;20049;-77
2023/06/23 13:23:11;;;;;;;4.72;3.47;;;;;;;;;;5011435;28;20052;-77
2023/06/23 13:25:37;;;;;;;5.50;3.10;;;;;;;;;;5013269;28;20064;-77
2023/06/23 13:28:03;;;;;;;3.78;3.10;;;;;;;;;;5012276;28;20076;-77
2023/06/23 13:30:30;;;;;;;4.65;3.20;;;;;;;;;;5013638;28;20052;-77
2023/06/23 13:32:56;;;;;;;4.55;3.25;;;;;;;;;;5013092;28;20388;-77
2023/06/23 13:35:23;;;;;;;5.25;3.25;;;;;;;;;;5013359;28;20115;-77
2023/06/23 13:37:49;;;;;;;5.63;3.53;;;;;;;;;;4996062;28;20050;-78
2023/06/23 13:40:15;;;;;;;5.05;3.65;;;;;;;;;;5011774;28;20053;-78
2023/06/23 13:42:42;;;;;;;5.63;3.58;;;;;;;;;;5012957;28;20042;-77
2023/06/23 13:45:11;;;;;;;5.53;3.30;;;;;;;;;;5013089;28;20366;-77
2023/06/23 13:47:37;;;;;;;5.43;3.97;;;;;;;;;;5012973;28;20412;-77
2023/06/23 13:50:11;;;;;;;5.00;3.40;;;;;;;;;;5012835;28;20097;-77
2023/06/23 13:52:41;;;;;;;4.65;3.50;;;;;;;;;;5013085;28;20096;-77
2023/06/23 13:55:09;;;;;;;4.97;3.70;;;;;;;;;;5013094;28;20042;-77
2023/06/23 13:57:35;;;;;;;6.13;3.92;;;;;;;;;;5013191;28;20050;-77
2023/06/23 14:00:01;;;;;;;6.55;4.40;;;;;;;;;;5012847;28;20551;-77
2023/06/23 14:02:28;;;;;;;5.72;3.65;;;;;;;;;;5012753;28;20082;-77
2023/06/23 14:04:55;;;;;;;6.50;3.80;;;;;;;;;;5012978;28;20050;-77
2023/06/23 14:07:21;;;;;;;8.02;4.35;;;;;;;;;;5013017;28;20050;-77
2023/06/23 14:09:47;;;;;;;4.70;3.70;;;;;;;;;;5012974;28;20050;-77
2023/06/23 14:12:13;;;;;;;5.78;3.50;;;;;;;;;;5013216;28;20041;-78
2023/06/23 14:14:42;;;;;;;4.90;3.50;;;;;;;;;;5012524;28;20049;-78
2023/06/23 14:17:08;;;;;;;5.25;3.60;;;;;;;;;;5012832;28;20443;-77
2023/06/23 14:19:34;;;;;;;5.18;3.38;;;;;;;;;;5012974;28;20052;-80
2023/06/23 14:22:00;;;;;;;6.13;3.47;;;;;;;;;;5013245;28;20078;-78
2023/06/23 14:24:26;;;;;;;5.82;3.85;;;;;;;;;;5012648;28;20061;-77
2023/06/23 14:26:52;;;;;;;5.60;3.63;;;;;;;;;;5012772;28;20129;-77
2023/06/23 14:29:18;;;;;;;5.43;3.88;;;;;;;;;;5013045;28;20053;-77
2023/06/23 14:31:44;;;;;;;4.82;3.80;;;;;;;;;;5012540;28;20085;-77
2023/06/23 14:34:11;;;;;;;5.57;3.80;;;;;;;;;;5012821;28;20054;-77
2023/06/23 14:36:37;;;;;;;8.10;4.20;;;;;;;;;;5016582;28;20045;-77